sensor_id;sensor_type;location;lat;lon;timestamp;temperature;humidity
60287;DHT22;46141;52.382;5.270;2022-10-04T00:01:49;20.00;79.70
60287;DHT22;46141;52.382;5.270;2022-10-04T00:04:31;20.00;79.70
60287;DHT22;46141;52.382;5.270;2022-10-04T00:14:54;20.00;79.50
60287;DHT22;46141;52.382;5.270;2022-10-04T00:17:28;20.00;79.60
60287;DHT22;46141;52.382;5.270;2022-10-04T00:19:55;20.00;79.50
60287;DHT22;46141;52.382;5.270;2022-10-04T00:22:28;19.90;79.50
60287;DHT22;46141;52.382;5.270;2022-10-04T00:27:31;19.90;79.50
60287;DHT22;46141;52.382;5.270;2022-10-04T00:32:58;19.90;79.40
60287;DHT22;46141;52.382;5.270;2022-10-04T00:37:58;19.90;79.40
60287;DHT22;46141;52.382;5.270;2022-10-04T00:40:32;19.90;80.00
60287;DHT22;46141;52.382;5.270;2022-10-04T00:43:09;19.90;79.30
60287;DHT22;46141;52.382;5.270;2022-10-04T00:45:45;19.90;79.40
60287;DHT22;46141;52.382;5.270;2022-10-04T00:54:05;19.80;79.30
60287;DHT22;46141;52.382;5.270;2022-10-04T00:56:43;19.80;79.20
60287;DHT22;46141;52.382;5.270;2022-10-04T00:59:21;19.80;79.40
60287;DHT22;46141;52.382;5.270;2022-10-04T01:01:55;19.90;79.40
60287;DHT22;46141;52.382;5.270;2022-10-04T01:07:03;19.80;79.20
60287;DHT22;46141;52.382;5.270;2022-10-04T01:09:38;19.80;79.20
60287;DHT22;46141;52.382;5.270;2022-10-04T01:12:24;19.80;79.30
60287;DHT22;46141;52.382;5.270;2022-10-04T01:17:31;19.80;79.30
60287;DHT22;46141;52.382;5.270;2022-10-04T01:19:57;19.80;79.30
60287;DHT22;46141;52.382;5.270;2022-10-04T01:22:41;19.70;79.20
60287;DHT22;46141;52.382;5.270;2022-10-04T01:25:08;19.70;79.20
60287;DHT22;46141;52.382;5.270;2022-10-04T01:27:34;19.70;79.20
60287;DHT22;46141;52.382;5.270;2022-10-04T01:30:04;19.70;79.20
60287;DHT22;46141;52.382;5.270;2022-10-04T01:32:31;19.70;79.20
60287;DHT22;46141;52.382;5.270;2022-10-04T01:34:57;19.70;79.20
60287;DHT22;46141;52.382;5.270;2022-10-04T01:37:23;19.70;79.20
60287;DHT22;46141;52.382;5.270;2022-10-04T01:39:48;19.60;79.20
60287;DHT22;46141;52.382;5.270;2022-10-04T01:42:26;19.70;79.20
60287;DHT22;46141;52.382;5.270;2022-10-04T01:45:07;19.70;79.00
60287;DHT22;46141;52.382;5.270;2022-10-04T01:50:13;19.70;79.10
60287;DHT22;46141;52.382;5.270;2022-10-04T01:52:45;19.70;79.10
60287;DHT22;46141;52.382;5.270;2022-10-04T01:55:25;19.60;79.10
60287;DHT22;46141;52.382;5.270;2022-10-04T01:58:09;19.60;79.10
60287;DHT22;46141;52.382;5.270;2022-10-04T02:00:58;19.60;79.10
60287;DHT22;46141;52.382;5.270;2022-10-04T02:03:34;19.60;79.10
60287;DHT22;46141;52.382;5.270;2022-10-04T02:06:05;19.60;79.10
60287;DHT22;46141;52.382;5.270;2022-10-04T02:08:37;19.60;79.10
60287;DHT22;46141;52.382;5.270;2022-10-04T02:11:04;19.60;79.10
60287;DHT22;46141;52.382;5.270;2022-10-04T02:13:37;19.60;79.00
60287;DHT22;46141;52.382;5.270;2022-10-04T02:16:10;19.60;79.10
60287;DHT22;46141;52.382;5.270;2022-10-04T02:18:38;19.60;79.10
60287;DHT22;46141;52.382;5.270;2022-10-04T02:21:06;19.50;79.00
60287;DHT22;46141;52.382;5.270;2022-10-04T02:23:35;19.60;79.10
60287;DHT22;46141;52.382;5.270;2022-10-04T02:26:07;19.50;79.00
60287;DHT22;46141;52.382;5.270;2022-10-04T02:28:35;19.50;79.00
60287;DHT22;46141;52.382;5.270;2022-10-04T02:31:02;19.50;79.10
60287;DHT22;46141;52.382;5.270;2022-10-04T02:33:28;19.50;78.90
60287;DHT22;46141;52.382;5.270;2022-10-04T02:35:53;19.50;78.90
60287;DHT22;46141;52.382;5.270;2022-10-04T02:38:31;19.50;78.90
60287;DHT22;46141;52.382;5.270;2022-10-04T02:41:09;19.50;78.90
60287;DHT22;46141;52.382;5.270;2022-10-04T02:43:51;19.50;79.00
60287;DHT22;46141;52.382;5.270;2022-10-04T02:48:58;19.50;79.00
60287;DHT22;46141;52.382;5.270;2022-10-04T02:51:49;19.50;79.00
60287;DHT22;46141;52.382;5.270;2022-10-04T02:56:52;19.50;78.90
60287;DHT22;46141;52.382;5.270;2022-10-04T02:59:20;19.50;78.80
60287;DHT22;46141;52.382;5.270;2022-10-04T03:01:55;19.40;78.80
60287;DHT22;46141;52.382;5.270;2022-10-04T03:04:24;19.40;78.70
60287;DHT22;46141;52.382;5.270;2022-10-04T03:06:52;19.40;78.80
60287;DHT22;46141;52.382;5.270;2022-10-04T03:09:21;19.40;78.70
60287;DHT22;46141;52.382;5.270;2022-10-04T03:11:50;19.40;78.70
60287;DHT22;46141;52.382;5.270;2022-10-04T03:14:20;19.40;78.80
60287;DHT22;46141;52.382;5.270;2022-10-04T03:16:49;19.40;78.80
60287;DHT22;46141;52.382;5.270;2022-10-04T03:19:17;19.40;78.80
60287;DHT22;46141;52.382;5.270;2022-10-04T03:21:47;19.30;78.70
60287;DHT22;46141;52.382;5.270;2022-10-04T03:24:19;19.40;78.80
60287;DHT22;46141;52.382;5.270;2022-10-04T03:26:49;19.30;78.70
60287;DHT22;46141;52.382;5.270;2022-10-04T03:29:17;19.40;78.90
60287;DHT22;46141;52.382;5.270;2022-10-04T03:31:47;19.30;78.80
60287;DHT22;46141;52.382;5.270;2022-10-04T03:34:20;19.40;78.80
60287;DHT22;46141;52.382;5.270;2022-10-04T03:36:48;19.40;78.80
60287;DHT22;46141;52.382;5.270;2022-10-04T03:39:26;19.30;78.80
60287;DHT22;46141;52.382;5.270;2022-10-04T03:41:52;19.30;78.70
60287;DHT22;46141;52.382;5.270;2022-10-04T03:44:20;19.30;78.70
60287;DHT22;46141;52.382;5.270;2022-10-04T03:46:48;19.30;78.80
60287;DHT22;46141;52.382;5.270;2022-10-04T03:49:22;19.30;78.70
60287;DHT22;46141;52.382;5.270;2022-10-04T03:51:50;19.30;78.80
60287;DHT22;46141;52.382;5.270;2022-10-04T03:54:21;19.30;78.80
60287;DHT22;46141;52.382;5.270;2022-10-04T03:56:47;19.30;78.70
60287;DHT22;46141;52.382;5.270;2022-10-04T03:59:16;19.30;78.60
60287;DHT22;46141;52.382;5.270;2022-10-04T04:01:49;19.30;78.60
60287;DHT22;46141;52.382;5.270;2022-10-04T04:04:40;19.30;78.60
60287;DHT22;46141;52.382;5.270;2022-10-04T04:12:23;19.20;78.60
60287;DHT22;46141;52.382;5.270;2022-10-04T04:14:52;19.20;78.50
60287;DHT22;46141;52.382;5.270;2022-10-04T04:17:47;19.20;78.60
60287;DHT22;46141;52.382;5.270;2022-10-04T04:20:41;19.20;78.50
60287;DHT22;46141;52.382;5.270;2022-10-04T04:25:47;19.20;78.60
60287;DHT22;46141;52.382;5.270;2022-10-04T04:30:48;19.10;78.60
60287;DHT22;46141;52.382;5.270;2022-10-04T04:33:39;19.10;78.60
60287;DHT22;46141;52.382;5.270;2022-10-04T04:36:10;19.10;78.40
60287;DHT22;46141;52.382;5.270;2022-10-04T04:38:36;19.10;78.50
60287;DHT22;46141;52.382;5.270;2022-10-04T04:41:10;19.20;78.50
60287;DHT22;46141;52.382;5.270;2022-10-04T04:43:35;19.10;78.30
60287;DHT22;46141;52.382;5.270;2022-10-04T04:46:01;19.20;78.30
60287;DHT22;46141;52.382;5.270;2022-10-04T04:48:32;19.10;78.40
60287;DHT22;46141;52.382;5.270;2022-10-04T04:50:58;19.10;78.40
60287;DHT22;46141;52.382;5.270;2022-10-04T04:53:28;19.10;78.50
60287;DHT22;46141;52.382;5.270;2022-10-04T04:55:58;19.10;78.40
60287;DHT22;46141;52.382;5.270;2022-10-04T04:58:37;19.10;78.40
60287;DHT22;46141;52.382;5.270;2022-10-04T05:01:14;19.10;78.30
60287;DHT22;46141;52.382;5.270;2022-10-04T05:03:42;19.10;78.30
60287;DHT22;46141;52.382;5.270;2022-10-04T05:06:29;19.10;78.20
60287;DHT22;46141;52.382;5.270;2022-10-04T05:08:55;19.10;78.10
60287;DHT22;46141;52.382;5.270;2022-10-04T05:11:25;19.10;78.30
60287;DHT22;46141;52.382;5.270;2022-10-04T05:14:06;19.10;78.30
60287;DHT22;46141;52.382;5.270;2022-10-04T05:16:51;19.10;78.30
60287;DHT22;46141;52.382;5.270;2022-10-04T05:19:26;19.10;78.30
60287;DHT22;46141;52.382;5.270;2022-10-04T05:21:54;19.10;78.30
60287;DHT22;46141;52.382;5.270;2022-10-04T05:24:28;19.10;78.30
60287;DHT22;46141;52.382;5.270;2022-10-04T05:27:03;19.10;78.30
60287;DHT22;46141;52.382;5.270;2022-10-04T05:29:34;19.10;78.30
60287;DHT22;46141;52.382;5.270;2022-10-04T05:34:39;19.10;78.00
60287;DHT22;46141;52.382;5.270;2022-10-04T05:37:25;19.10;78.20
60287;DHT22;46141;52.382;5.270;2022-10-04T05:40:14;19.10;78.10
60287;DHT22;46141;52.382;5.270;2022-10-04T05:42:45;19.10;77.90
60287;DHT22;46141;52.382;5.270;2022-10-04T05:45:20;19.10;77.90
60287;DHT22;46141;52.382;5.270;2022-10-04T05:47:50;19.10;77.80
60287;DHT22;46141;52.382;5.270;2022-10-04T06:01:12;19.10;77.80
60287;DHT22;46141;52.382;5.270;2022-10-04T06:07:04;19.00;77.70
60287;DHT22;46141;52.382;5.270;2022-10-04T06:18:03;19.00;78.30
60287;DHT22;46141;52.382;5.270;2022-10-04T06:23:27;19.00;77.80
60287;DHT22;46141;52.382;5.270;2022-10-04T06:26:09;18.90;77.80
60287;DHT22;46141;52.382;5.270;2022-10-04T06:28:42;19.00;77.80
60287;DHT22;46141;52.382;5.270;2022-10-04T06:39:36;19.00;77.70
60287;DHT22;46141;52.382;5.270;2022-10-04T06:42:13;19.00;77.60
60287;DHT22;46141;52.382;5.270;2022-10-04T06:47:42;19.00;77.70
60287;DHT22;46141;52.382;5.270;2022-10-04T07:01:29;18.90;77.70
60287;DHT22;46141;52.382;5.270;2022-10-04T07:07:11;19.00;77.60
60287;DHT22;46141;52.382;5.270;2022-10-04T07:09:41;19.00;77.60
60287;DHT22;46141;52.382;5.270;2022-10-04T07:12:12;19.00;77.60
60287;DHT22;46141;52.382;5.270;2022-10-04T07:14:45;19.00;77.50
60287;DHT22;46141;52.382;5.270;2022-10-04T07:17:20;19.00;77.40
60287;DHT22;46141;52.382;5.270;2022-10-04T07:19:51;19.00;77.40
60287;DHT22;46141;52.382;5.270;2022-10-04T07:22:28;19.00;77.50
60287;DHT22;46141;52.382;5.270;2022-10-04T07:25:23;19.10;77.50
60287;DHT22;46141;52.382;5.270;2022-10-04T07:30:38;19.00;77.40
60287;DHT22;46141;52.382;5.270;2022-10-04T07:33:08;19.10;77.40
60287;DHT22;46141;52.382;5.270;2022-10-04T07:35:49;19.10;77.30
60287;DHT22;46141;52.382;5.270;2022-10-04T07:41:16;19.20;77.00
60287;DHT22;46141;52.382;5.270;2022-10-04T07:43:52;19.20;76.90
60287;DHT22;46141;52.382;5.270;2022-10-04T07:46:42;19.20;76.80
60287;DHT22;46141;52.382;5.270;2022-10-04T07:49:14;19.20;76.80
60287;DHT22;46141;52.382;5.270;2022-10-04T08:20:44;19.40;76.70
60287;DHT22;46141;52.382;5.270;2022-10-04T08:32:03;19.60;76.40
60287;DHT22;46141;52.382;5.270;2022-10-04T08:34:57;19.70;76.30
60287;DHT22;46141;52.382;5.270;2022-10-04T08:37:44;19.80;76.40
60287;DHT22;46141;52.382;5.270;2022-10-04T08:52:06;19.90;76.60
60287;DHT22;46141;52.382;5.270;2022-10-04T08:54:58;19.90;76.70
60287;DHT22;46141;52.382;5.270;2022-10-04T09:00:34;19.90;76.70
60287;DHT22;46141;52.382;5.270;2022-10-04T09:19:54;20.20;76.00
60287;DHT22;46141;52.382;5.270;2022-10-04T09:22:44;20.20;75.90
60287;DHT22;46141;52.382;5.270;2022-10-04T09:28:22;20.30;75.90
60287;DHT22;46141;52.382;5.270;2022-10-04T09:47:39;20.50;75.00
60287;DHT22;46141;52.382;5.270;2022-10-04T09:51:18;20.60;74.90
60287;DHT22;46141;52.382;5.270;2022-10-04T09:58:48;20.70;74.20
60287;DHT22;46141;52.382;5.270;2022-10-04T10:01:46;20.80;74.20
60287;DHT22;46141;52.382;5.270;2022-10-04T10:10:06;20.90;73.80
60287;DHT22;46141;52.382;5.270;2022-10-04T10:21:11;21.20;73.00
60287;DHT22;46141;52.382;5.270;2022-10-04T10:37:26;21.50;72.10
60287;DHT22;46141;52.382;5.270;2022-10-04T10:54:50;21.70;71.30
60287;DHT22;46141;52.382;5.270;2022-10-04T10:57:57;21.80;71.20
60287;DHT22;46141;52.382;5.270;2022-10-04T11:06:45;21.80;70.90
60287;DHT22;46141;52.382;5.270;2022-10-04T11:12:24;21.90;70.80
60287;DHT22;46141;52.382;5.270;2022-10-04T11:18:04;22.00;70.50
60287;DHT22;46141;52.382;5.270;2022-10-04T11:21:21;22.00;70.40
60287;DHT22;46141;52.382;5.270;2022-10-04T11:24:05;22.00;70.50
60287;DHT22;46141;52.382;5.270;2022-10-04T11:57:30;22.10;70.30
60287;DHT22;46141;52.382;5.270;2022-10-04T12:00:13;22.20;70.20
60287;DHT22;46141;52.382;5.270;2022-10-04T12:19:13;22.50;69.60
60287;DHT22;46141;52.382;5.270;2022-10-04T12:24:49;22.60;69.30
60287;DHT22;46141;52.382;5.270;2022-10-04T12:30:28;22.80;68.90
60287;DHT22;46141;52.382;5.270;2022-10-04T12:33:25;22.80;68.80
60287;DHT22;46141;52.382;5.270;2022-10-04T12:36:11;22.90;68.60
60287;DHT22;46141;52.382;5.270;2022-10-04T12:38:48;23.00;68.50
60287;DHT22;46141;52.382;5.270;2022-10-04T12:44:33;23.10;68.20
60287;DHT22;46141;52.382;5.270;2022-10-04T12:47:31;23.10;68.20
60287;DHT22;46141;52.382;5.270;2022-10-04T12:53:32;23.20;67.90
60287;DHT22;46141;52.382;5.270;2022-10-04T12:56:07;23.20;67.90
60287;DHT22;46141;52.382;5.270;2022-10-04T12:59:01;23.20;67.90
60287;DHT22;46141;52.382;5.270;2022-10-04T13:10:00;23.20;68.90
60287;DHT22;46141;52.382;5.270;2022-10-04T13:12:34;23.20;68.90
60287;DHT22;46141;52.382;5.270;2022-10-04T13:18:19;23.20;69.00
60287;DHT22;46141;52.382;5.270;2022-10-04T13:21:07;23.20;68.80
60287;DHT22;46141;52.382;5.270;2022-10-04T13:23:37;23.30;69.00
60287;DHT22;46141;52.382;5.270;2022-10-04T13:29:19;23.30;68.70
60287;DHT22;46141;52.382;5.270;2022-10-04T13:32:13;23.40;68.60
60287;DHT22;46141;52.382;5.270;2022-10-04T13:35:14;23.40;68.50
60287;DHT22;46141;52.382;5.270;2022-10-04T13:40:46;23.50;68.40
60287;DHT22;46141;52.382;5.270;2022-10-04T13:53:49;23.50;68.10
60287;DHT22;46141;52.382;5.270;2022-10-04T13:56:57;23.50;68.10
60287;DHT22;46141;52.382;5.270;2022-10-04T13:59:39;23.50;68.00
60287;DHT22;46141;52.382;5.270;2022-10-04T14:22:53;23.40;67.60
60287;DHT22;46141;52.382;5.270;2022-10-04T14:45:31;23.50;68.10
60287;DHT22;46141;52.382;5.270;2022-10-04T14:54:27;23.50;68.10
60287;DHT22;46141;52.382;5.270;2022-10-04T15:05:51;23.40;68.10
60287;DHT22;46141;52.382;5.270;2022-10-04T15:10:53;23.20;68.20
60287;DHT22;46141;52.382;5.270;2022-10-04T15:16:41;23.10;68.40
60287;DHT22;46141;52.382;5.270;2022-10-04T15:19:28;23.10;68.40
60287;DHT22;46141;52.382;5.270;2022-10-04T15:24:29;23.00;68.60
60287;DHT22;46141;52.382;5.270;2022-10-04T15:26:59;23.00;68.70
60287;DHT22;46141;52.382;5.270;2022-10-04T15:32:33;22.90;68.90
60287;DHT22;46141;52.382;5.270;2022-10-04T15:38:27;22.80;69.00
60287;DHT22;46141;52.382;5.270;2022-10-04T15:41:01;22.80;69.10
60287;DHT22;46141;52.382;5.270;2022-10-04T15:43:41;22.80;69.10
60287;DHT22;46141;52.382;5.270;2022-10-04T15:49:24;22.70;69.50
60287;DHT22;46141;52.382;5.270;2022-10-04T16:04:23;22.60;70.10
60287;DHT22;46141;52.382;5.270;2022-10-04T16:12:26;22.60;70.60
60287;DHT22;46141;52.382;5.270;2022-10-04T16:17:40;22.70;70.20
60287;DHT22;46141;52.382;5.270;2022-10-04T16:25:48;22.60;70.50
60287;DHT22;46141;52.382;5.270;2022-10-04T16:28:53;22.60;71.10
60287;DHT22;46141;52.382;5.270;2022-10-04T16:43:01;22.40;71.50
60287;DHT22;46141;52.382;5.270;2022-10-04T16:51:11;22.40;71.50
60287;DHT22;46141;52.382;5.270;2022-10-04T16:58:51;22.30;71.80
60287;DHT22;46141;52.382;5.270;2022-10-04T17:02:05;22.20;72.50
60287;DHT22;46141;52.382;5.270;2022-10-04T17:07:23;22.20;71.90
60287;DHT22;46141;52.382;5.270;2022-10-04T17:10:17;22.20;71.80
60287;DHT22;46141;52.382;5.270;2022-10-04T17:21:03;22.20;72.50
60287;DHT22;46141;52.382;5.270;2022-10-04T17:32:06;22.00;72.70
60287;DHT22;46141;52.382;5.270;2022-10-04T17:42:39;22.10;73.00
60287;DHT22;46141;52.382;5.270;2022-10-04T17:45:30;22.10;72.90
60287;DHT22;46141;52.382;5.270;2022-10-04T17:48:15;22.10;73.50
60287;DHT22;46141;52.382;5.270;2022-10-04T17:51:02;22.10;73.00
60287;DHT22;46141;52.382;5.270;2022-10-04T17:53:34;22.00;73.00
60287;DHT22;46141;52.382;5.270;2022-10-04T17:56:03;22.00;73.00
60287;DHT22;46141;52.382;5.270;2022-10-04T17:58:51;22.00;73.10
60287;DHT22;46141;52.382;5.270;2022-10-04T18:01:29;22.00;73.30
60287;DHT22;46141;52.382;5.270;2022-10-04T18:04:18;22.10;73.40
60287;DHT22;46141;52.382;5.270;2022-10-04T18:09:31;22.00;73.30
60287;DHT22;46141;52.382;5.270;2022-10-04T18:12:11;22.00;73.20
60287;DHT22;46141;52.382;5.270;2022-10-04T18:14:58;21.90;73.20
60287;DHT22;46141;52.382;5.270;2022-10-04T18:17:39;21.90;73.40
60287;DHT22;46141;52.382;5.270;2022-10-04T18:20:28;21.90;73.50
60287;DHT22;46141;52.382;5.270;2022-10-04T18:23:12;21.90;73.70
60287;DHT22;46141;52.382;5.270;2022-10-04T18:25:40;21.90;73.70
60287;DHT22;46141;52.382;5.270;2022-10-04T18:33:23;21.90;73.80
60287;DHT22;46141;52.382;5.270;2022-10-04T18:36:04;21.80;73.80
60287;DHT22;46141;52.382;5.270;2022-10-04T18:38:33;21.90;74.50
60287;DHT22;46141;52.382;5.270;2022-10-04T18:46:22;21.80;73.90
60287;DHT22;46141;52.382;5.270;2022-10-04T18:48:52;21.80;74.00
60287;DHT22;46141;52.382;5.270;2022-10-04T18:51:53;21.80;74.10
60287;DHT22;46141;52.382;5.270;2022-10-04T19:06:28;21.70;74.20
60287;DHT22;46141;52.382;5.270;2022-10-04T19:11:27;21.80;74.30
60287;DHT22;46141;52.382;5.270;2022-10-04T19:16:48;21.70;74.30
60287;DHT22;46141;52.382;5.270;2022-10-04T19:22:01;21.70;74.40
60287;DHT22;46141;52.382;5.270;2022-10-04T19:27:05;21.70;74.40
60287;DHT22;46141;52.382;5.270;2022-10-04T19:30:17;21.70;74.40
60287;DHT22;46141;52.382;5.270;2022-10-04T19:38:42;21.70;74.40
60287;DHT22;46141;52.382;5.270;2022-10-04T19:50:20;21.80;74.90
60287;DHT22;46141;52.382;5.270;2022-10-04T19:52:52;21.70;75.00
60287;DHT22;46141;52.382;5.270;2022-10-04T19:55:35;21.70;75.20
60287;DHT22;46141;52.382;5.270;2022-10-04T20:00:50;21.70;75.40
60287;DHT22;46141;52.382;5.270;2022-10-04T20:03:15;21.70;75.50
60287;DHT22;46141;52.382;5.270;2022-10-04T20:05:44;21.70;75.50
60287;DHT22;46141;52.382;5.270;2022-10-04T20:08:12;21.70;75.70
60287;DHT22;46141;52.382;5.270;2022-10-04T20:10:38;21.70;75.50
60287;DHT22;46141;52.382;5.270;2022-10-04T20:13:23;21.60;75.50
60287;DHT22;46141;52.382;5.270;2022-10-04T20:15:51;21.60;75.50
60287;DHT22;46141;52.382;5.270;2022-10-04T20:26:08;21.60;75.80
60287;DHT22;46141;52.382;5.270;2022-10-04T20:31:02;21.60;76.00
60287;DHT22;46141;52.382;5.270;2022-10-04T20:38:51;21.60;75.80
60287;DHT22;46141;52.382;5.270;2022-10-04T20:44:00;21.60;76.00
60287;DHT22;46141;52.382;5.270;2022-10-04T20:46:32;21.60;76.00
60287;DHT22;46141;52.382;5.270;2022-10-04T20:49:01;21.50;76.00
60287;DHT22;46141;52.382;5.270;2022-10-04T20:51:29;21.50;76.00
60287;DHT22;46141;52.382;5.270;2022-10-04T20:53:55;21.60;76.00
60287;DHT22;46141;52.382;5.270;2022-10-04T20:56:33;21.60;75.80
60287;DHT22;46141;52.382;5.270;2022-10-04T20:59:00;21.60;75.80
60287;DHT22;46141;52.382;5.270;2022-10-04T21:03:52;21.50;76.10
60287;DHT22;46141;52.382;5.270;2022-10-04T21:06:17;21.50;76.10
60287;DHT22;46141;52.382;5.270;2022-10-04T21:08:43;21.50;76.10
60287;DHT22;46141;52.382;5.270;2022-10-04T21:11:21;21.50;76.20
60287;DHT22;46141;52.382;5.270;2022-10-04T21:16:34;21.50;76.40
60287;DHT22;46141;52.382;5.270;2022-10-04T21:19:29;21.50;76.40
60287;DHT22;46141;52.382;5.270;2022-10-04T21:21:55;21.50;76.50
60287;DHT22;46141;52.382;5.270;2022-10-04T21:24:39;21.40;76.40
60287;DHT22;46141;52.382;5.270;2022-10-04T21:27:07;21.50;76.50
60287;DHT22;46141;52.382;5.270;2022-10-04T21:29:35;21.40;76.40
60287;DHT22;46141;52.382;5.270;2022-10-04T21:32:00;21.40;76.50
60287;DHT22;46141;52.382;5.270;2022-10-04T21:34:26;21.40;76.40
60287;DHT22;46141;52.382;5.270;2022-10-04T21:36:52;21.40;76.40
60287;DHT22;46141;52.382;5.270;2022-10-04T21:39:18;21.40;76.40
60287;DHT22;46141;52.382;5.270;2022-10-04T21:41:43;21.40;76.40
60287;DHT22;46141;52.382;5.270;2022-10-04T21:44:09;21.40;76.50
60287;DHT22;46141;52.382;5.270;2022-10-04T21:46:35;21.40;76.50
60287;DHT22;46141;52.382;5.270;2022-10-04T21:49:00;21.40;76.40
60287;DHT22;46141;52.382;5.270;2022-10-04T21:51:26;21.40;76.50
60287;DHT22;46141;52.382;5.270;2022-10-04T21:53:51;21.40;76.60
60287;DHT22;46141;52.382;5.270;2022-10-04T21:56:17;21.40;76.50
60287;DHT22;46141;52.382;5.270;2022-10-04T21:58:42;21.40;76.70
60287;DHT22;46141;52.382;5.270;2022-10-04T22:01:08;21.30;76.60
60287;DHT22;46141;52.382;5.270;2022-10-04T22:03:33;21.40;76.60
60287;DHT22;46141;52.382;5.270;2022-10-04T22:05:59;21.40;76.60
60287;DHT22;46141;52.382;5.270;2022-10-04T22:08:24;21.40;76.70
60287;DHT22;46141;52.382;5.270;2022-10-04T22:10:50;21.30;76.70
60287;DHT22;46141;52.382;5.270;2022-10-04T22:13:15;21.40;76.80
60287;DHT22;46141;52.382;5.270;2022-10-04T22:15:41;21.30;76.80
60287;DHT22;46141;52.382;5.270;2022-10-04T22:18:06;21.30;76.80
60287;DHT22;46141;52.382;5.270;2022-10-04T22:20:32;21.30;76.70
60287;DHT22;46141;52.382;5.270;2022-10-04T22:22:58;21.30;76.70
60287;DHT22;46141;52.382;5.270;2022-10-04T22:25:25;21.30;76.70
60287;DHT22;46141;52.382;5.270;2022-10-04T22:27:51;21.30;76.70
60287;DHT22;46141;52.382;5.270;2022-10-04T22:32:48;21.30;76.80
60287;DHT22;46141;52.382;5.270;2022-10-04T22:35:17;21.40;76.90
60287;DHT22;46141;52.382;5.270;2022-10-04T22:37:44;21.30;76.80
60287;DHT22;46141;52.382;5.270;2022-10-04T22:40:19;21.30;76.80
60287;DHT22;46141;52.382;5.270;2022-10-04T22:42:51;21.30;76.80
60287;DHT22;46141;52.382;5.270;2022-10-04T22:45:29;21.30;76.80
60287;DHT22;46141;52.382;5.270;2022-10-04T22:47:58;21.30;76.80
60287;DHT22;46141;52.382;5.270;2022-10-04T22:50:34;21.30;76.90
60287;DHT22;46141;52.382;5.270;2022-10-04T22:53:15;21.30;76.90
60287;DHT22;46141;52.382;5.270;2022-10-04T22:55:43;21.30;77.00
60287;DHT22;46141;52.382;5.270;2022-10-04T22:58:12;21.30;76.90
60287;DHT22;46141;52.382;5.270;2022-10-04T23:00:38;21.30;77.00
60287;DHT22;46141;52.382;5.270;2022-10-04T23:03:27;21.20;76.90
60287;DHT22;46141;52.382;5.270;2022-10-04T23:05:53;21.30;76.90
60287;DHT22;46141;52.382;5.270;2022-10-04T23:08:18;21.20;76.90
60287;DHT22;46141;52.382;5.270;2022-10-04T23:10:44;21.30;76.90
60287;DHT22;46141;52.382;5.270;2022-10-04T23:13:10;21.30;76.90
60287;DHT22;46141;52.382;5.270;2022-10-04T23:15:36;21.20;76.90
60287;DHT22;46141;52.382;5.270;2022-10-04T23:18:04;21.20;77.00
60287;DHT22;46141;52.382;5.270;2022-10-04T23:20:36;21.20;76.90
60287;DHT22;46141;52.382;5.270;2022-10-04T23:23:01;21.20;77.00
60287;DHT22;46141;52.382;5.270;2022-10-04T23:25:30;21.20;77.00
60287;DHT22;46141;52.382;5.270;2022-10-04T23:28:00;21.20;77.10
60287;DHT22;46141;52.382;5.270;2022-10-04T23:30:26;21.20;77.00
60287;DHT22;46141;52.382;5.270;2022-10-04T23:32:56;21.20;77.10
60287;DHT22;46141;52.382;5.270;2022-10-04T23:35:30;21.20;77.00
60287;DHT22;46141;52.382;5.270;2022-10-04T23:37:56;21.20;77.20
60287;DHT22;46141;52.382;5.270;2022-10-04T23:40:23;21.20;77.10
60287;DHT22;46141;52.382;5.270;2022-10-04T23:42:52;21.20;77.10
60287;DHT22;46141;52.382;5.270;2022-10-04T23:45:21;21.20;77.20
60287;DHT22;46141;52.382;5.270;2022-10-04T23:47:54;21.20;77.10
60287;DHT22;46141;52.382;5.270;2022-10-04T23:50:34;21.10;77.20
60287;DHT22;46141;52.382;5.270;2022-10-04T23:53:03;21.10;77.20
60287;DHT22;46141;52.382;5.270;2022-10-04T23:55:38;21.20;77.20
60287;DHT22;46141;52.382;5.270;2022-10-04T23:58:19;21.10;77.10
